Time;durP1;ratioP1;P1;durP2;ratioP2;P2;SDS_P1;SDS_P2;PMS_P1;PMS_P2;Temp;Humidity;BMP_temperature;BMP_pressure;BME280_temperature;BME280_humidity;BME280_pressure;Samples;Min_cycle;Max_cycle;Signal;HPM_P1;HPM_P2
2021/09/01 00:02:12;;;;;;;5.10;3.80;;;;;;;;;;5095009;28;20043;-65
2021/09/01 00:04:38;;;;;;;9.35;3.78;;;;;;;;;;5106839;28;20028;-65
2021/09/01 00:07:04;;;;;;;5.53;3.80;;;;;;;;;;5105978;28;20032;-66
2021/09/01 00:09:31;;;;;;;4.85;3.60;;;;;;;;;;5093181;28;20039;-65
2021/09/01 00:11:58;;;;;;;5.68;3.90;;;;;;;;;;5101073;28;20073;-65
2021/09/01 00:14:24;;;;;;;6.55;4.07;;;;;;;;;;5098991;28;20047;-65
2021/09/01 00:16:50;;;;;;;4.50;3.65;;;;;;;;;;5106323;28;20111;-67
2021/09/01 00:19:16;;;;;;;7.28;3.92;;;;;;;;;;5104391;28;20026;-69
2021/09/01 00:21:43;;;;;;;4.05;3.63;;;;;;;;;;5095574;28;20054;-65
2021/09/01 00:24:09;;;;;;;4.18;3.53;;;;;;;;;;5101735;28;20102;-69
2021/09/01 00:26:35;;;;;;;5.43;3.72;;;;;;;;;;5091369;28;20043;-65
2021/09/01 00:29:01;;;;;;;5.75;3.58;;;;;;;;;;5104647;28;20082;-67
2021/09/01 00:31:28;;;;;;;6.65;3.40;;;;;;;;;;5093028;28;20027;-65
2021/09/01 00:33:54;;;;;;;5.32;3.97;;;;;;;;;;5100886;28;20065;-65
2021/09/01 00:36:20;;;;;;;13.35;3.90;;;;;;;;;;5102823;28;20024;-65
2021/09/01 00:38:48;;;;;;;7.72;3.85;;;;;;;;;;5103212;28;20028;-65
2021/09/01 00:41:15;;;;;;;7.03;3.78;;;;;;;;;;5102562;28;20028;-64
2021/09/01 00:43:41;;;;;;;5.53;3.50;;;;;;;;;;5103073;28;20020;-65
2021/09/01 00:46:07;;;;;;;8.27;3.97;;;;;;;;;;5099730;28;20039;-65
2021/09/01 00:48:33;;;;;;;7.75;3.90;;;;;;;;;;5101491;28;20036;-65
2021/09/01 00:51:00;;;;;;;6.28;3.70;;;;;;;;;;5102845;28;20027;-65
2021/09/01 00:53:34;;;;;;;9.63;4.15;;;;;;;;;;5102900;28;20062;-69
2021/09/01 00:56:00;;;;;;;4.45;3.67;;;;;;;;;;5098239;28;20095;-65
2021/09/01 00:58:34;;;;;;;8.80;3.88;;;;;;;;;;5088574;28;20024;-65
2021/09/01 01:01:16;;;;;;;5.95;3.80;;;;;;;;;;5094069;28;20024;-68
2021/09/01 01:03:46;;;;;;;4.78;3.42;;;;;;;;;;5089799;28;20033;-67
2021/09/01 01:06:12;;;;;;;12.80;3.92;;;;;;;;;;5102223;28;20096;-65
2021/09/01 01:08:38;;;;;;;5.90;4.00;;;;;;;;;;5102257;28;20043;-65
2021/09/01 01:11:10;;;;;;;5.97;3.60;;;;;;;;;;5102527;28;20024;-65
2021/09/01 01:13:36;;;;;;;;;;;;;;;;;;5101548;28;20083;-65
2021/09/01 01:16:02;;;;;;;4.18;3.53;;;;;;;;;;5102749;28;20353;-65
2021/09/01 01:18:28;;;;;;;5.70;3.42;;;;;;;;;;5097899;28;20039;-65
2021/09/01 01:20:55;;;;;;;11.02;4.07;;;;;;;;;;5089963;28;20030;-66
2021/09/01 01:23:23;;;;;;;6.40;4.13;;;;;;;;;;5102461;28;20027;-65
2021/09/01 01:25:49;;;;;;;7.70;4.10;;;;;;;;;;5098185;28;20074;-65
2021/09/01 01:28:15;;;;;;;15.32;4.40;;;;;;;;;;5095415;28;20409;-65
2021/09/01 01:30:41;;;;;;;5.05;3.95;;;;;;;;;;5101819;28;20380;-65
2021/09/01 01:33:08;;;;;;;4.45;3.53;;;;;;;;;;5088277;28;20107;-65
2021/09/01 01:35:41;;;;;;;5.25;3.80;;;;;;;;;;5094020;28;20023;-65
2021/09/01 01:38:18;;;;;;;4.07;3.65;;;;;;;;;;5088446;28;20037;-65
2021/09/01 01:40:44;;;;;;;5.10;3.80;;;;;;;;;;5102114;28;20033;-67
2021/09/01 01:43:11;;;;;;;4.38;3.75;;;;;;;;;;5088092;28;20023;-65
2021/09/01 01:45:38;;;;;;;4.72;3.97;;;;;;;;;;5099731;28;20024;-65
2021/09/01 01:48:05;;;;;;;4.30;3.90;;;;;;;;;;5100368;28;20482;-66
2021/09/01 01:50:32;;;;;;;6.85;4.28;;;;;;;;;;5101754;28;20051;-66
2021/09/01 01:52:58;;;;;;;4.63;3.75;;;;;;;;;;5101867;28;20087;-65
2021/09/01 01:55:24;;;;;;;7.60;4.30;;;;;;;;;;5073511;28;20573;-70
2021/09/01 01:57:50;;;;;;;6.70;3.90;;;;;;;;;;5101581;28;20177;-65
2021/09/01 02:00:17;;;;;;;4.22;3.47;;;;;;;;;;5094529;28;20054;-65
2021/09/01 02:02:44;;;;;;;8.80;4.70;;;;;;;;;;5093600;28;20024;-65
2021/09/01 02:05:10;;;;;;;7.43;4.40;;;;;;;;;;5099855;28;20028;-65
2021/09/01 02:07:36;;;;;;;7.07;4.70;;;;;;;;;;5100772;28;20096;-65
2021/09/01 02:10:03;;;;;;;4.88;4.35;;;;;;;;;;5101422;28;20030;-65
2021/09/01 02:12:30;;;;;;;6.20;4.30;;;;;;;;;;5100196;28;20026;-66
2021/09/01 02:15:00;;;;;;;5.90;3.95;;;;;;;;;;5101575;28;20556;-65
2021/09/01 02:17:29;;;;;;;7.88;4.45;;;;;;;;;;5101665;28;20024;-65
2021/09/01 02:19:56;;;;;;;6.35;4.47;;;;;;;;;;5099171;28;20043;-65
2021/09/01 02:22:22;;;;;;;8.23;4.63;;;;;;;;;;5107330;28;20029;-65
2021/09/01 02:24:49;;;;;;;4.72;4.22;;;;;;;;;;5103627;28;20038;-65
2021/09/01 02:27:15;;;;;;;9.10;4.60;;;;;;;;;;5103442;28;20367;-65
2021/09/01 02:29:41;;;;;;;4.70;4.13;;;;;;;;;;5103247;28;20028;-65
2021/09/01 02:32:08;;;;;;;4.88;4.38;;;;;;;;;;5095374;28;20036;-65
2021/09/01 02:34:34;;;;;;;6.22;4.30;;;;;;;;;;5103184;28;20498;-67
2021/09/01 02:37:01;;;;;;;4.97;4.47;;;;;;;;;;5103663;28;20028;-65
2021/09/01 02:39:27;;;;;;;5.20;4.70;;;;;;;;;;5103730;28;20026;-68
2021/09/01 02:41:53;;;;;;;6.50;4.65;;;;;;;;;;5102310;28;20024;-67
2021/09/01 02:44:19;;;;;;;7.15;4.75;;;;;;;;;;5102018;28;20502;-65
2021/09/01 02:46:46;;;;;;;6.03;4.60;;;;;;;;;;5103968;28;20038;-65
2021/09/01 02:49:12;;;;;;;5.25;4.65;;;;;;;;;;5101689;28;20040;-66
2021/09/01 02:51:39;;;;;;;5.70;4.88;;;;;;;;;;5103903;28;20024;-65
2021/09/01 02:54:05;;;;;;;5.30;4.50;;;;;;;;;;5103503;28;20511;-65
2021/09/01 02:56:31;;;;;;;6.25;5.30;;;;;;;;;;5100670;28;20028;-65
2021/09/01 02:58:57;;;;;;;7.50;4.82;;;;;;;;;;5107496;28;20053;-65
2021/09/01 03:01:23;;;;;;;6.90;4.53;;;;;;;;;;5103213;27;20024;-65
2021/09/01 03:03:50;;;;;;;11.18;4.93;;;;;;;;;;5088334;28;20031;-65
2021/09/01 03:06:16;;;;;;;6.80;4.28;;;;;;;;;;5103110;28;20031;-65
2021/09/01 03:08:42;;;;;;;6.50;4.57;;;;;;;;;;5101864;28;20048;-65
2021/09/01 03:11:08;;;;;;;7.22;4.43;;;;;;;;;;5102876;28;20039;-65
2021/09/01 03:13:35;;;;;;;6.90;4.40;;;;;;;;;;5100130;28;20027;-65
2021/09/01 03:16:01;;;;;;;5.82;4.57;;;;;;;;;;5102617;28;20387;-66
2021/09/01 03:18:27;;;;;;;6.45;4.38;;;;;;;;;;5102291;28;20069;-65
2021/09/01 03:20:53;;;;;;;5.72;4.40;;;;;;;;;;5101929;28;20571;-65
2021/09/01 03:23:19;;;;;;;5.07;4.57;;;;;;;;;;5101443;28;20038;-65
2021/09/01 03:25:46;;;;;;;5.13;4.38;;;;;;;;;;5097335;28;20034;-65
2021/09/01 03:28:12;;;;;;;5.68;4.22;;;;;;;;;;5098992;28;20050;-65
2021/09/01 03:30:39;;;;;;;7.38;4.05;;;;;;;;;;5102585;28;21043;-65
2021/09/01 03:33:05;;;;;;;6.28;4.35;;;;;;;;;;5096607;28;20077;-69
2021/09/01 03:35:31;;;;;;;6.13;4.50;;;;;;;;;;5102097;28;20062;-65
2021/09/01 03:37:57;;;;;;;5.00;4.10;;;;;;;;;;5101730;28;20028;-68
2021/09/01 03:40:23;;;;;;;6.80;4.18;;;;;;;;;;5088624;28;20032;-65
2021/09/01 03:42:49;;;;;;;5.07;4.07;;;;;;;;;;5100750;28;20068;-65
2021/09/01 03:45:16;;;;;;;4.10;3.58;;;;;;;;;;5092570;28;20451;-69
2021/09/01 03:47:42;;;;;;;4.80;4.10;;;;;;;;;;5098147;28;20028;-65
2021/09/01 03:50:10;;;;;;;9.43;4.35;;;;;;;;;;5101137;28;20084;-65
2021/09/01 03:52:36;;;;;;;7.10;3.90;;;;;;;;;;5100334;28;20099;-65
2021/09/01 03:55:02;;;;;;;5.03;4.07;;;;;;;;;;5102066;28;20032;-65
2021/09/01 03:57:28;;;;;;;7.05;4.18;;;;;;;;;;5099098;28;20051;-65
2021/09/01 03:59:55;;;;;;;7.45;3.95;;;;;;;;;;5092456;28;20019;-65
2021/09/01 04:02:21;;;;;;;11.85;4.85;;;;;;;;;;5091955;28;20044;-65
2021/09/01 04:04:47;;;;;;;10.82;4.60;;;;;;;;;;5097809;28;20028;-65
2021/09/01 04:07:13;;;;;;;6.88;4.72;;;;;;;;;;5101316;28;20043;-65
2021/09/01 04:09:39;;;;;;;5.75;4.18;;;;;;;;;;5100861;28;20058;-65
2021/09/01 04:12:06;;;;;;;4.60;4.20;;;;;;;;;;5101538;28;20022;-65
2021/09/01 04:14:32;;;;;;;6.35;4.45;;;;;;;;;;5100899;28;20035;-65
2021/09/01 04:16:58;;;;;;;6.47;4.85;;;;;;;;;;5099960;28;20023;-65
2021/09/01 04:19:24;;;;;;;4.65;4.18;;;;;;;;;;5096234;28;20042;-65
2021/09/01 04:21:50;;;;;;;5.45;4.85;;;;;;;;;;5100752;28;20655;-65
2021/09/01 04:24:16;;;;;;;4.70;4.25;;;;;;;;;;5100639;28;20035;-65
2021/09/01 04:26:42;;;;;;;4.55;4.13;;;;;;;;;;5097221;28;20059;-66
2021/09/01 04:29:09;;;;;;;8.55;4.63;;;;;;;;;;5100728;28;20125;-65
2021/09/01 04:31:35;;;;;;;6.32;4.68;;;;;;;;;;5082104;28;20027;-65
2021/09/01 04:34:01;;;;;;;5.25;4.40;;;;;;;;;;5092434;28;20516;-65
2021/09/01 04:36:27;;;;;;;9.07;4.45;;;;;;;;;;5090823;28;20035;-65
2021/09/01 04:38:53;;;;;;;5.20;4.55;;;;;;;;;;5100118;28;20068;-65
2021/09/01 04:41:19;;;;;;;7.45;4.35;;;;;;;;;;5100923;28;20024;-65
2021/09/01 04:43:46;;;;;;;7.97;4.28;;;;;;;;;;5100922;28;20482;-65
2021/09/01 04:46:12;;;;;;;9.13;4.63;;;;;;;;;;5099703;28;20033;-66
2021/09/01 04:48:38;;;;;;;13.95;4.88;;;;;;;;;;5100479;28;20050;-65
2021/09/01 04:51:04;;;;;;;10.55;4.55;;;;;;;;;;5098728;28;20039;-65
2021/09/01 04:53:30;;;;;;;5.20;4.22;;;;;;;;;;5099223;28;20070;-65
2021/09/01 04:55:56;;;;;;;7.45;4.32;;;;;;;;;;5098495;28;20031;-65
2021/09/01 04:58:22;;;;;;;7.95;5.15;;;;;;;;;;5100680;28;20122;-65
2021/09/01 05:00:49;;;;;;;9.85;5.47;;;;;;;;;;5098844;28;20027;-65
2021/09/01 05:03:15;;;;;;;9.10;6.07;;;;;;;;;;5089664;28;20028;-65
2021/09/01 05:05:41;;;;;;;17.23;6.22;;;;;;;;;;5099991;28;20043;-68
2021/09/01 05:08:07;;;;;;;6.53;5.18;;;;;;;;;;5100565;28;20484;-65
2021/09/01 05:10:33;;;;;;;11.20;5.90;;;;;;;;;;5097748;28;20097;-65
2021/09/01 05:13:00;;;;;;;9.38;5.70;;;;;;;;;;5094174;28;20023;-67
2021/09/01 05:15:26;;;;;;;7.85;5.57;;;;;;;;;;5086043;28;20031;-67
2021/09/01 05:17:52;;;;;;;10.40;5.75;;;;;;;;;;5099566;28;20534;-68
2021/09/01 05:20:18;;;;;;;10.20;5.75;;;;;;;;;;5100018;28;20072;-69
2021/09/01 05:22:45;;;;;;;10.95;6.50;;;;;;;;;;5089363;28;20103;-69
2021/09/01 05:25:13;;;;;;;15.60;7.28;;;;;;;;;;5088781;28;20036;-68
2021/09/01 05:27:40;;;;;;;18.60;7.57;;;;;;;;;;5097996;28;20024;-69
2021/09/01 05:30:07;;;;;;;14.02;7.35;;;;;;;;;;5099816;28;20046;-67
2021/09/01 05:32:35;;;;;;;15.35;7.47;;;;;;;;;;5096832;28;20134;-68
2021/09/01 05:35:02;;;;;;;12.88;7.28;;;;;;;;;;5090041;27;20764;-67
2021/09/01 05:37:28;;;;;;;11.35;7.10;;;;;;;;;;5098484;28;20020;-71
2021/09/01 05:39:56;;;;;;;10.18;7.85;;;;;;;;;;5099435;28;20434;-68
2021/09/01 05:42:24;;;;;;;12.27;7.30;;;;;;;;;;5085497;28;20080;-68
2021/09/01 05:44:50;;;;;;;23.15;7.50;;;;;;;;;;5085209;28;20201;-68
2021/09/01 05:47:17;;;;;;;13.13;8.02;;;;;;;;;;5096036;28;20054;-67
2021/09/01 05:49:45;;;;;;;21.80;8.75;;;;;;;;;;5101743;28;20571;-68
2021/09/01 05:52:11;;;;;;;12.57;6.68;;;;;;;;;;5101509;28;20566;-68
2021/09/01 05:54:40;;;;;;;16.95;7.10;;;;;;;;;;5096391;28;20062;-69
2021/09/01 05:57:09;;;;;;;12.60;7.68;;;;;;;;;;5099570;28;20035;-68
2021/09/01 05:59:41;;;;;;;19.75;7.43;;;;;;;;;;5083165;28;20471;-68
2021/09/01 06:02:08;;;;;;;11.90;7.35;;;;;;;;;;5091657;28;20531;-69
2021/09/01 06:04:38;;;;;;;10.43;6.53;;;;;;;;;;5099110;28;20035;-69
2021/09/01 06:07:08;;;;;;;8.85;4.43;;;;;;;;;;5088887;28;20032;-69
2021/09/01 06:09:34;;;;;;;3.53;2.90;;;;;;;;;;5101597;28;20058;-69
2021/09/01 06:12:04;;;;;;;3.72;2.40;;;;;;;;;;5092692;28;20104;-68
2021/09/01 06:14:30;;;;;;;45.67;6.80;;;;;;;;;;5099827;28;20071;-69
2021/09/01 06:16:56;;;;;;;7.45;2.92;;;;;;;;;;5101159;28;20523;-69
2021/09/01 06:19:22;;;;;;;5.60;3.15;;;;;;;;;;5101414;28;20032;-69
2021/09/01 06:21:48;;;;;;;5.90;3.33;;;;;;;;;;5101179;28;20031;-69
2021/09/01 06:24:14;;;;;;;3.83;2.50;;;;;;;;;;5102080;28;20034;-69
2021/09/01 06:26:41;;;;;;;3.83;2.33;;;;;;;;;;5105319;28;20024;-69
2021/09/01 06:29:07;;;;;;;5.13;2.80;;;;;;;;;;5103845;28;20077;-69
2021/09/01 06:31:35;;;;;;;5.50;2.70;;;;;;;;;;5092893;28;20187;-69
2021/09/01 06:34:02;;;;;;;3.95;2.60;;;;;;;;;;5103073;28;20039;-69
2021/09/01 06:36:29;;;;;;;7.10;2.67;;;;;;;;;;5098040;27;20107;-68
2021/09/01 06:38:55;;;;;;;6.22;2.55;;;;;;;;;;5105423;27;20014;-68
2021/09/01 06:41:21;;;;;;;3.38;2.25;;;;;;;;;;5085756;28;20024;-68
2021/09/01 06:43:47;;;;;;;6.70;2.63;;;;;;;;;;5101918;28;20028;-69
2021/09/01 06:46:13;;;;;;;10.88;3.08;;;;;;;;;;5103054;28;20024;-69
2021/09/01 06:48:39;;;;;;;4.75;2.40;;;;;;;;;;5105015;28;20041;-68
2021/09/01 06:51:05;;;;;;;4.38;2.78;;;;;;;;;;5094541;28;20501;-68
2021/09/01 06:53:32;;;;;;;22.33;5.32;;;;;;;;;;5102809;28;20038;-69
2021/09/01 06:55:58;;;;;;;8.85;3.65;;;;;;;;;;5104349;28;20024;-69
2021/09/01 06:58:24;;;;;;;4.03;2.72;;;;;;;;;;5104179;28;20553;-69
2021/09/01 07:00:50;;;;;;;6.07;2.50;;;;;;;;;;5099741;28;20019;-69
2021/09/01 07:03:16;;;;;;;5.13;2.63;;;;;;;;;;5093279;28;20020;-69
2021/09/01 07:05:43;;;;;;;5.18;2.78;;;;;;;;;;5085511;28;20028;-68
2021/09/01 07:08:13;;;;;;;10.32;3.47;;;;;;;;;;5086057;28;20118;-68
2021/09/01 07:10:39;;;;;;;7.63;3.30;;;;;;;;;;5088012;28;20456;-68
2021/09/01 07:13:05;;;;;;;4.07;2.90;;;;;;;;;;5088492;28;20027;-68
2021/09/01 07:15:31;;;;;;;6.75;3.20;;;;;;;;;;5089192;28;20028;-68
2021/09/01 07:17:57;;;;;;;4.30;2.88;;;;;;;;;;5085858;28;20028;-68
2021/09/01 07:20:24;;;;;;;4.28;2.72;;;;;;;;;;5089898;28;20085;-68
2021/09/01 07:22:50;;;;;;;5.32;2.70;;;;;;;;;;5087129;28;20095;-67
2021/09/01 07:25:16;;;;;;;4.90;2.70;;;;;;;;;;5092295;28;20028;-67
2021/09/01 07:27:43;;;;;;;5.25;2.95;;;;;;;;;;5087399;28;20085;-67
2021/09/01 07:30:09;;;;;;;4.82;2.80;;;;;;;;;;5087918;28;20093;-67
2021/09/01 07:32:36;;;;;;;5.60;2.92;;;;;;;;;;5086578;28;20631;-68
2021/09/01 07:35:03;;;;;;;3.10;2.75;;;;;;;;;;5077681;27;20351;-68
2021/09/01 07:37:29;;;;;;;5.03;2.90;;;;;;;;;;5091738;28;20070;-68
2021/09/01 07:39:55;;;;;;;5.03;3.38;;;;;;;;;;5087188;28;20024;-68
2021/09/01 07:42:21;;;;;;;8.65;3.00;;;;;;;;;;5087917;28;20080;-68
2021/09/01 07:44:47;;;;;;;8.20;3.90;;;;;;;;;;5092264;27;20581;-68
2021/09/01 07:47:13;;;;;;;5.65;3.00;;;;;;;;;;5116980;27;20118;-68
2021/09/01 07:49:41;;;;;;;4.32;3.10;;;;;;;;;;5087263;28;20032;-69
2021/09/01 07:52:08;;;;;;;5.03;3.25;;;;;;;;;;5093372;28;20499;-68
2021/09/01 07:54:34;;;;;;;7.00;3.35;;;;;;;;;;5088735;28;20026;-67
2021/09/01 07:57:01;;;;;;;33.65;5.50;;;;;;;;;;5086778;28;20031;-67
2021/09/01 07:59:27;;;;;;;8.45;3.90;;;;;;;;;;5088900;28;20058;-67
2021/09/01 08:01:53;;;;;;;5.93;3.10;;;;;;;;;;5102352;28;20081;-68
2021/09/01 08:04:19;;;;;;;4.43;2.95;;;;;;;;;;5097957;28;20024;-67
2021/09/01 08:06:46;;;;;;;7.45;3.00;;;;;;;;;;5085409;28;20023;-68
2021/09/01 08:09:12;;;;;;;4.72;3.38;;;;;;;;;;5100327;28;20051;-68
2021/09/01 08:11:38;;;;;;;4.78;3.05;;;;;;;;;;5103692;28;20024;-67
2021/09/01 08:14:04;;;;;;;4.68;3.00;;;;;;;;;;5104696;28;20058;-67
2021/09/01 08:16:31;;;;;;;5.72;2.40;;;;;;;;;;5103511;28;20051;-67
2021/09/01 08:18:57;;;;;;;6.00;2.90;;;;;;;;;;5102415;28;20020;-68
2021/09/01 08:21:23;;;;;;;5.45;2.67;;;;;;;;;;5102459;28;20039;-67
2021/09/01 08:23:49;;;;;;;3.28;2.78;;;;;;;;;;5102778;28;20022;-67
2021/09/01 08:26:15;;;;;;;3.03;2.50;;;;;;;;;;5103808;28;20031;-67
2021/09/01 08:28:43;;;;;;;7.22;3.13;;;;;;;;;;5103100;28;20506;-67
2021/09/01 08:31:09;;;;;;;4.15;3.00;;;;;;;;;;5103726;28;20030;-67
2021/09/01 08:33:35;;;;;;;4.28;3.05;;;;;;;;;;5103018;28;20027;-67
2021/09/01 08:36:01;;;;;;;3.08;2.50;;;;;;;;;;5101539;28;20027;-68
2021/09/01 08:38:27;;;;;;;4.68;2.80;;;;;;;;;;5103099;28;20027;-67
2021/09/01 08:40:54;;;;;;;3.70;2.97;;;;;;;;;;5102842;28;20028;-67
2021/09/01 08:43:20;;;;;;;3.50;2.88;;;;;;;;;;5101022;28;20020;-67
2021/09/01 08:45:47;;;;;;;4.57;2.92;;;;;;;;;;5102627;28;20134;-67
2021/09/01 08:48:17;;;;;;;5.93;2.75;;;;;;;;;;5105458;28;20031;-69
2021/09/01 08:50:44;;;;;;;5.35;2.55;;;;;;;;;;5103087;28;20491;-68
2021/09/01 08:53:10;;;;;;;7.68;3.25;;;;;;;;;;5084696;28;20505;-68
2021/09/01 08:55:36;;;;;;;4.57;2.83;;;;;;;;;;5102338;28;20031;-68
2021/09/01 08:58:03;;;;;;;5.05;3.42;;;;;;;;;;5101096;28;20036;-68
2021/09/01 09:00:29;;;;;;;4.20;2.97;;;;;;;;;;5094060;28;20667;-68
2021/09/01 09:02:57;;;;;;;3.25;2.45;;;;;;;;;;5086250;28;20494;-68
2021/09/01 09:05:33;;;;;;;5.70;3.03;;;;;;;;;;5096510;28;20043;-68
2021/09/01 09:08:00;;;;;;;4.63;2.75;;;;;;;;;;5091113;28;20037;-69
2021/09/01 09:10:29;;;;;;;2.90;2.50;;;;;;;;;;5095920;28;20070;-68
2021/09/01 09:13:03;;;;;;;3.22;2.40;;;;;;;;;;5084682;28;20107;-68
2021/09/01 09:15:29;;;;;;;3.42;2.20;;;;;;;;;;5084789;28;20047;-68
2021/09/01 09:17:55;;;;;;;5.07;2.72;;;;;;;;;;5066499;28;20544;-68
2021/09/01 09:20:26;;;;;;;3.55;2.70;;;;;;;;;;5086232;28;20028;-69
2021/09/01 09:22:53;;;;;;;4.30;2.90;;;;;;;;;;5083036;28;20055;-69
2021/09/01 09:25:24;;;;;;;3.35;2.47;;;;;;;;;;5086779;28;20031;-68
2021/09/01 09:27:56;;;;;;;4.55;2.90;;;;;;;;;;5083854;28;20016;-68
2021/09/01 09:30:29;;;;;;;4.88;2.58;;;;;;;;;;5086759;28;20035;-69
2021/09/01 09:33:00;;;;;;;13.07;3.35;;;;;;;;;;5084632;28;20016;-69
2021/09/01 09:35:27;;;;;;;9.27;3.00;;;;;;;;;;5085060;28;20098;-69
2021/09/01 09:38:03;;;;;;;18.85;3.08;;;;;;;;;;5083846;28;20118;-69
2021/09/01 09:40:30;;;;;;;5.63;2.33;;;;;;;;;;5086366;28;20038;-69
2021/09/01 09:42:57;;;;;;;3.10;2.33;;;;;;;;;;5099144;28;20028;-69
2021/09/01 09:45:24;;;;;;;7.43;2.60;;;;;;;;;;5088713;28;20088;-68
2021/09/01 09:47:52;;;;;;;4.60;2.50;;;;;;;;;;5067578;28;20020;-68
2021/09/01 09:50:18;;;;;;;4.38;2.33;;;;;;;;;;5083859;28;20119;-70
2021/09/01 09:52:44;;;;;;;3.72;2.40;;;;;;;;;;5067953;28;20020;-69
2021/09/01 09:55:11;;;;;;;2.70;2.30;;;;;;;;;;5082494;28;20035;-69
2021/09/01 09:57:51;;;;;;;3.58;2.65;;;;;;;;;;5094488;28;20045;-69
2021/09/01 10:00:18;;;;;;;3.22;2.28;;;;;;;;;;5091104;28;20020;-70
2021/09/01 10:02:45;;;;;;;2.90;2.28;;;;;;;;;;5102277;28;20102;-70
2021/09/01 10:05:15;;;;;;;3.55;2.25;;;;;;;;;;5101413;28;20617;-69
2021/09/01 10:07:41;;;;;;;3.38;2.30;;;;;;;;;;5083571;28;20031;-69
2021/09/01 10:10:09;;;;;;;4.25;2.20;;;;;;;;;;5079580;28;20136;-70
2021/09/01 10:12:53;;;;;;;4.38;2.50;;;;;;;;;;5081284;28;20372;-69
2021/09/01 10:15:26;;;;;;;3.65;2.42;;;;;;;;;;5100374;28;20125;-71
2021/09/01 10:17:55;;;;;;;2.45;2.17;;;;;;;;;;5101163;28;20058;-71
2021/09/01 10:20:22;;;;;;;3.25;2.45;;;;;;;;;;5098654;28;20102;-72
2021/09/01 10:23:01;;;;;;;2.85;2.22;;;;;;;;;;5100872;28;20080;-71
2021/09/01 10:25:40;;;;;;;3.65;2.30;;;;;;;;;;5100325;28;20479;-70
2021/09/01 10:28:21;;;;;;;3.20;2.45;;;;;;;;;;5100143;28;20038;-70
2021/09/01 10:30:47;;;;;;;;;;;;;;;;;;5098298;28;20399;-69
2021/09/01 10:33:33;;;;;;;3.75;2.17;;;;;;;;;;5101205;28;19943;-69
2021/09/01 10:36:00;;;;;;;4.75;2.50;;;;;;;;;;5084670;28;20038;-70
2021/09/01 10:38:32;;;;;;;2.60;2.00;;;;;;;;;;5084881;28;20024;-70
2021/09/01 10:41:04;;;;;;;5.20;2.30;;;;;;;;;;5087442;28;20095;-71
2021/09/01 10:43:31;;;;;;;4.07;2.25;;;;;;;;;;5085962;28;20020;-70
2021/09/01 10:45:57;;;;;;;3.85;2.50;;;;;;;;;;5089042;28;20031;-69
2021/09/01 10:48:24;;;;;;;9.07;2.83;;;;;;;;;;5083398;28;20036;-70
2021/09/01 10:50:51;;;;;;;3.70;2.28;;;;;;;;;;5085544;28;20027;-70
2021/09/01 10:53:21;;;;;;;5.25;2.17;;;;;;;;;;5096048;28;20016;-71
2021/09/01 10:55:49;;;;;;;3.92;2.55;;;;;;;;;;5072759;28;20027;-73
2021/09/01 10:58:16;;;;;;;3.78;2.67;;;;;;;;;;5090377;28;20023;-72
2021/09/01 11:00:42;;;;;;;4.65;1.95;;;;;;;;;;5082051;28;20028;-69
2021/09/01 11:03:09;;;;;;;6.95;2.58;;;;;;;;;;5097799;28;20483;-69
2021/09/01 11:05:36;;;;;;;3.80;2.42;;;;;;;;;;5111152;28;20077;-72
2021/09/01 11:08:02;;;;;;;3.85;2.38;;;;;;;;;;5111641;28;20046;-72
2021/09/01 11:10:29;;;;;;;4.13;2.47;;;;;;;;;;5099318;28;20131;-69
2021/09/01 11:13:02;;;;;;;3.67;2.45;;;;;;;;;;5117062;27;20482;-70
2021/09/01 11:15:29;;;;;;;3.80;2.70;;;;;;;;;;5106199;27;20042;-69
2021/09/01 11:18:08;;;;;;;3.70;2.35;;;;;;;;;;5103070;27;20047;-69
2021/09/01 11:20:35;;;;;;;2.78;2.10;;;;;;;;;;5099044;28;20066;-70
2021/09/01 11:23:04;;;;;;;5.05;2.58;;;;;;;;;;5118161;27;20024;-70
2021/09/01 11:25:30;;;;;;;4.57;2.70;;;;;;;;;;5102684;27;20092;-69
2021/09/01 11:27:57;;;;;;;8.13;2.80;;;;;;;;;;5120028;27;20032;-71
2021/09/01 11:30:24;;;;;;;7.88;3.28;;;;;;;;;;5114248;27;20064;-69
2021/09/01 11:32:55;;;;;;;4.47;2.67;;;;;;;;;;5118324;27;20071;-70
2021/09/01 11:35:22;;;;;;;3.72;2.40;;;;;;;;;;5110290;27;20114;-69
2021/09/01 11:38:03;;;;;;;4.10;2.55;;;;;;;;;;5116478;27;20655;-72
2021/09/01 11:40:33;;;;;;;3.90;2.60;;;;;;;;;;5105906;27;20027;-69
2021/09/01 11:42:59;;;;;;;3.10;2.40;;;;;;;;;;5110870;27;20110;-70
2021/09/01 11:45:26;;;;;;;4.07;2.58;;;;;;;;;;5114593;27;20301;-70
2021/09/01 11:47:52;;;;;;;3.78;2.70;;;;;;;;;;5110126;27;20024;-70
2021/09/01 11:50:19;;;;;;;4.93;2.60;;;;;;;;;;5112079;27;20237;-70
2021/09/01 11:52:52;;;;;;;6.07;3.03;;;;;;;;;;5094920;27;20035;-70
2021/09/01 11:55:22;;;;;;;7.20;2.85;;;;;;;;;;5115725;27;20110;-70
2021/09/01 11:57:48;;;;;;;4.97;2.88;;;;;;;;;;5095788;27;20027;-71
2021/09/01 12:00:14;;;;;;;5.45;2.53;;;;;;;;;;5109957;27;20089;-70
2021/09/01 12:02:41;;;;;;;3.35;2.40;;;;;;;;;;5108041;27;20061;-69
2021/09/01 12:05:08;;;;;;;3.15;2.30;;;;;;;;;;5109680;27;20024;-70
2021/09/01 12:07:37;;;;;;;3.90;2.50;;;;;;;;;;5116968;27;20080;-71
2021/09/01 12:10:07;;;;;;;5.03;2.80;;;;;;;;;;5106070;27;20031;-69
2021/09/01 12:12:34;;;;;;;3.50;2.57;;;;;;;;;;5114073;27;20390;-69
2021/09/01 12:15:08;;;;;;;3.88;2.47;;;;;;;;;;5101382;27;20020;-70
2021/09/01 12:17:34;;;;;;;9.23;2.80;;;;;;;;;;5109984;27;20042;-69
2021/09/01 12:20:01;;;;;;;7.82;2.80;;;;;;;;;;5108113;27;20595;-69
2021/09/01 12:22:34;;;;;;;4.70;2.50;;;;;;;;;;5116145;27;20035;-70
2021/09/01 12:25:05;;;;;;;4.22;2.72;;;;;;;;;;5097731;27;20383;-70
2021/09/01 12:27:31;;;;;;;5.28;2.65;;;;;;;;;;5116149;27;20073;-70
2021/09/01 12:29:57;;;;;;;2.63;2.38;;;;;;;;;;5105784;27;20043;-70
2021/09/01 12:32:24;;;;;;;4.13;2.63;;;;;;;;;;5114272;27;20049;-72
2021/09/01 12:34:55;;;;;;;3.83;2.42;;;;;;;;;;5103725;27;20031;-72
2021/09/01 12:37:21;;;;;;;;;;;;;;;;;;5110291;27;20039;-70
2021/09/01 12:39:58;;;;;;;2.97;2.67;;;;;;;;;;5114887;27;19915;-70
2021/09/01 12:42:27;;;;;;;4.25;2.95;;;;;;;;;;5098651;27;20024;-70
2021/09/01 12:45:14;;;;;;;5.57;2.60;;;;;;;;;;5108642;27;20026;-69
2021/09/01 12:47:55;;;;;;;7.43;2.85;;;;;;;;;;5089657;27;20058;-69
2021/09/01 12:50:21;;;;;;;;;;;;;;;;;;5111780;27;20038;-70
2021/09/01 12:52:48;;;;;;;3.28;2.50;;;;;;;;;;5108277;27;20789;-70
2021/09/01 12:55:14;;;;;;;3.85;2.35;;;;;;;;;;5107550;27;20119;-70
2021/09/01 12:57:41;;;;;;;5.13;2.58;;;;;;;;;;5092339;28;20032;-70
2021/09/01 13:00:07;;;;;;;2.58;2.33;;;;;;;;;;5106313;27;20015;-70
2021/09/01 13:02:33;;;;;;;6.63;3.10;;;;;;;;;;5106836;27;20016;-72
2021/09/01 13:04:59;;;;;;;3.17;2.65;;;;;;;;;;5107435;27;20024;-69
2021/09/01 13:07:26;;;;;;;7.63;2.65;;;;;;;;;;5108621;27;20023;-69
2021/09/01 13:09:52;;;;;;;5.00;2.72;;;;;;;;;;5103201;27;20552;-69
2021/09/01 13:12:18;;;;;;;3.80;2.25;;;;;;;;;;5112894;27;20033;-69
2021/09/01 13:14:44;;;;;;;3.42;2.35;;;;;;;;;;5105648;27;20091;-70
2021/09/01 13:17:10;;;;;;;2.70;2.30;;;;;;;;;;5111924;27;20654;-69
2021/09/01 13:19:36;;;;;;;2.85;2.10;;;;;;;;;;5095580;28;20214;-70
2021/09/01 13:22:03;;;;;;;5.75;2.42;;;;;;;;;;5099930;28;20020;-70
2021/09/01 13:24:30;;;;;;;4.70;2.30;;;;;;;;;;5101577;27;20044;-69
2021/09/01 13:26:56;;;;;;;2.85;2.15;;;;;;;;;;5102799;27;20899;-69
2021/09/01 13:29:23;;;;;;;2.55;2.10;;;;;;;;;;5101018;27;20629;-69
2021/09/01 13:31:49;;;;;;;4.18;2.33;;;;;;;;;;5103148;27;20035;-69
2021/09/01 13:34:15;;;;;;;4.95;2.05;;;;;;;;;;5108500;27;20031;-69
2021/09/01 13:36:41;;;;;;;2.80;2.25;;;;;;;;;;5106726;27;20023;-70
2021/09/01 13:39:08;;;;;;;2.78;2.20;;;;;;;;;;5105994;27;20027;-69
2021/09/01 13:41:34;;;;;;;4.90;2.10;;;;;;;;;;5101796;27;20035;-69
2021/09/01 13:44:00;;;;;;;12.85;2.45;;;;;;;;;;5096294;27;20023;-69
2021/09/01 13:46:28;;;;;;;3.55;2.13;;;;;;;;;;5105481;27;20085;-69
2021/09/01 13:48:55;;;;;;;4.55;2.40;;;;;;;;;;5101655;27;20043;-70
2021/09/01 13:51:21;;;;;;;4.63;1.98;;;;;;;;;;5097424;28;20500;-71
2021/09/01 13:53:48;;;;;;;6.00;2.25;;;;;;;;;;5099646;28;20063;-70
2021/09/01 13:56:14;;;;;;;4.43;2.05;;;;;;;;;;5097991;28;20076;-70
2021/09/01 13:58:40;;;;;;;6.55;2.45;;;;;;;;;;5099346;28;20027;-71
2021/09/01 14:01:06;;;;;;;6.97;2.50;;;;;;;;;;5098593;28;20035;-72
2021/09/01 14:03:33;;;;;;;3.38;2.47;;;;;;;;;;5096143;28;20028;-72
2021/09/01 14:06:00;;;;;;;5.88;2.35;;;;;;;;;;5099013;27;20526;-72
2021/09/01 14:08:26;;;;;;;5.68;2.80;;;;;;;;;;5106583;28;20405;-71
2021/09/01 14:10:52;;;;;;;6.32;3.58;;;;;;;;;;5092794;28;20055;-71
2021/09/01 14:13:19;;;;;;;5.10;2.75;;;;;;;;;;5099554;28;20019;-71
2021/09/01 14:15:45;;;;;;;3.30;2.50;;;;;;;;;;5079141;28;20028;-71
2021/09/01 14:18:11;;;;;;;2.58;2.05;;;;;;;;;;5099321;28;20613;-71
2021/09/01 14:20:40;;;;;;;4.90;2.30;;;;;;;;;;5097610;28;20814;-72
2021/09/01 14:23:06;;;;;;;2.80;2.38;;;;;;;;;;5095189;28;20055;-71
2021/09/01 14:25:33;;;;;;;3.53;2.05;;;;;;;;;;5094643;28;20671;-72
2021/09/01 14:27:59;;;;;;;4.43;2.60;;;;;;;;;;5104769;28;20098;-72
2021/09/01 14:30:26;;;;;;;4.28;2.25;;;;;;;;;;5100214;28;20451;-70
2021/09/01 14:32:52;;;;;;;4.63;2.42;;;;;;;;;;5098157;28;20106;-70
2021/09/01 14:35:18;;;;;;;10.05;2.72;;;;;;;;;;5102195;28;20531;-70
2021/09/01 14:37:44;;;;;;;9.73;2.92;;;;;;;;;;5106576;28;20052;-71
2021/09/01 14:40:11;;;;;;;177.45;17.55;;;;;;;;;;5100411;28;20023;-70
2021/09/01 14:42:37;;;;;;;76.97;10.90;;;;;;;;;;5090487;28;20034;-70
2021/09/01 14:45:04;;;;;;;14.60;3.80;;;;;;;;;;5092759;28;20028;-70